sensor_id;sensor_type;location;lat;lon;timestamp;P1;durP1;ratioP1;P2;durP2;ratioP2
1082;SDS011;530;51.448;7.238;2023-05-10T00:01:42;5.27;;;3.60;;
1082;SDS011;530;51.448;7.238;2023-05-10T00:04:08;3.23;;;2.93;;
1082;SDS011;530;51.448;7.238;2023-05-10T00:06:33;4.10;;;3.70;;
1082;SDS011;530;51.448;7.238;2023-05-10T00:08:59;4.03;;;3.67;;
1082;SDS011;530;51.448;7.238;2023-05-10T00:11:25;4.00;;;3.70;;
1082;SDS011;530;51.448;7.238;2023-05-10T00:13:50;3.60;;;3.30;;
1082;SDS011;530;51.448;7.238;2023-05-10T00:16:16;4.43;;;4.03;;
1082;SDS011;530;51.448;7.238;2023-05-10T00:18:42;4.20;;;3.80;;
1082;SDS011;530;51.448;7.238;2023-05-10T00:21:08;3.83;;;3.53;;
1082;SDS011;530;51.448;7.238;2023-05-10T00:23:33;4.60;;;4.07;;
1082;SDS011;530;51.448;7.238;2023-05-10T00:25:59;5.20;;;3.60;;
1082;SDS011;530;51.448;7.238;2023-05-10T00:28:25;3.90;;;3.50;;
1082;SDS011;530;51.448;7.238;2023-05-10T00:30:53;4.00;;;3.60;;
1082;SDS011;530;51.448;7.238;2023-05-10T00:33:18;4.67;;;3.90;;
1082;SDS011;530;51.448;7.238;2023-05-10T00:35:44;4.73;;;4.23;;
1082;SDS011;530;51.448;7.238;2023-05-10T00:38:10;5.37;;;4.57;;
1082;SDS011;530;51.448;7.238;2023-05-10T00:40:36;5.07;;;4.57;;
1082;SDS011;530;51.448;7.238;2023-05-10T00:43:02;4.70;;;4.10;;
1082;SDS011;530;51.448;7.238;2023-05-10T00:45:28;5.50;;;5.00;;
1082;SDS011;530;51.448;7.238;2023-05-10T00:47:56;8.43;;;5.00;;
1082;SDS011;530;51.448;7.238;2023-05-10T00:50:22;5.80;;;5.00;;
1082;SDS011;530;51.448;7.238;2023-05-10T00:52:48;6.30;;;5.67;;
1082;SDS011;530;51.448;7.238;2023-05-10T00:55:14;5.97;;;5.30;;
1082;SDS011;530;51.448;7.238;2023-05-10T00:57:40;5.80;;;5.20;;
1082;SDS011;530;51.448;7.238;2023-05-10T01:00:07;7.10;;;5.77;;
1082;SDS011;530;51.448;7.238;2023-05-10T01:02:34;5.80;;;4.90;;
1082;SDS011;530;51.448;7.238;2023-05-10T01:05:00;7.40;;;6.57;;
1082;SDS011;530;51.448;7.238;2023-05-10T01:07:28;6.70;;;6.00;;
1082;SDS011;530;51.448;7.238;2023-05-10T01:09:54;7.13;;;6.43;;
1082;SDS011;530;51.448;7.238;2023-05-10T01:12:20;7.37;;;6.60;;
1082;SDS011;530;51.448;7.238;2023-05-10T01:14:46;7.67;;;6.70;;
1082;SDS011;530;51.448;7.238;2023-05-10T01:17:13;7.13;;;6.43;;
1082;SDS011;530;51.448;7.238;2023-05-10T01:19:39;7.40;;;6.60;;
1082;SDS011;530;51.448;7.238;2023-05-10T01:33:43;6.60;;;6.00;;
1082;SDS011;530;51.448;7.238;2023-05-10T01:39:19;5.60;;;5.10;;
1082;SDS011;530;51.448;7.238;2023-05-10T01:47:44;6.17;;;5.57;;
1082;SDS011;530;51.448;7.238;2023-05-10T01:50:16;7.67;;;5.60;;
1082;SDS011;530;51.448;7.238;2023-05-10T01:52:47;7.50;;;6.70;;
1082;SDS011;530;51.448;7.238;2023-05-10T01:55:18;6.30;;;5.60;;
1082;SDS011;530;51.448;7.238;2023-05-10T01:57:46;6.73;;;6.03;;
1082;SDS011;530;51.448;7.238;2023-05-10T02:00:16;7.13;;;6.43;;
1082;SDS011;530;51.448;7.238;2023-05-10T02:02:49;6.90;;;6.10;;
1082;SDS011;530;51.448;7.238;2023-05-10T02:05:16;7.57;;;6.33;;
1082;SDS011;530;51.448;7.238;2023-05-10T02:07:45;6.93;;;6.27;;
1082;SDS011;530;51.448;7.238;2023-05-10T02:10:11;6.87;;;6.17;;
1082;SDS011;530;51.448;7.238;2023-05-10T02:12:40;6.83;;;6.20;;
1082;SDS011;530;51.448;7.238;2023-05-10T02:15:08;6.53;;;5.83;;
1082;SDS011;530;51.448;7.238;2023-05-10T02:17:37;7.07;;;6.20;;
1082;SDS011;530;51.448;7.238;2023-05-10T02:20:04;7.50;;;6.10;;
1082;SDS011;530;51.448;7.238;2023-05-10T02:22:31;6.73;;;5.43;;
1082;SDS011;530;51.448;7.238;2023-05-10T02:24:58;7.70;;;6.20;;
1082;SDS011;530;51.448;7.238;2023-05-10T02:27:25;8.67;;;5.70;;
1082;SDS011;530;51.448;7.238;2023-05-10T02:29:53;6.27;;;5.67;;
1082;SDS011;530;51.448;7.238;2023-05-10T02:32:21;7.17;;;5.87;;
1082;SDS011;530;51.448;7.238;2023-05-10T02:34:48;5.73;;;5.20;;
1082;SDS011;530;51.448;7.238;2023-05-10T02:37:17;7.37;;;6.17;;
1082;SDS011;530;51.448;7.238;2023-05-10T02:39:46;7.13;;;6.33;;
1082;SDS011;530;51.448;7.238;2023-05-10T02:42:16;8.60;;;7.03;;
1082;SDS011;530;51.448;7.238;2023-05-10T02:44:45;7.30;;;6.60;;
1082;SDS011;530;51.448;7.238;2023-05-10T02:47:12;11.03;;;7.37;;
1082;SDS011;530;51.448;7.238;2023-05-10T02:49:38;9.03;;;6.70;;
1082;SDS011;530;51.448;7.238;2023-05-10T02:52:04;8.17;;;7.30;;
1082;SDS011;530;51.448;7.238;2023-05-10T02:54:39;10.00;;;7.50;;
1082;SDS011;530;51.448;7.238;2023-05-10T02:57:09;10.57;;;7.93;;
1082;SDS011;530;51.448;7.238;2023-05-10T02:59:40;8.37;;;6.73;;
1082;SDS011;530;51.448;7.238;2023-05-10T03:02:08;8.97;;;8.03;;
1082;SDS011;530;51.448;7.238;2023-05-10T03:04:35;11.00;;;8.57;;
1082;SDS011;530;51.448;7.238;2023-05-10T03:07:01;11.50;;;8.00;;
1082;SDS011;530;51.448;7.238;2023-05-10T03:09:27;10.43;;;7.70;;
1082;SDS011;530;51.448;7.238;2023-05-10T03:14:51;8.10;;;7.20;;
1082;SDS011;530;51.448;7.238;2023-05-10T03:17:23;9.23;;;7.63;;
1082;SDS011;530;51.448;7.238;2023-05-10T03:19:59;11.20;;;8.10;;
1082;SDS011;530;51.448;7.238;2023-05-10T03:22:32;7.80;;;6.97;;
1082;SDS011;530;51.448;7.238;2023-05-10T03:25:04;10.00;;;6.77;;
1082;SDS011;530;51.448;7.238;2023-05-10T03:27:31;10.40;;;7.57;;
1082;SDS011;530;51.448;7.238;2023-05-10T03:29:58;12.10;;;7.77;;
1082;SDS011;530;51.448;7.238;2023-05-10T03:32:26;11.00;;;8.13;;
1082;SDS011;530;51.448;7.238;2023-05-10T03:34:55;8.37;;;7.07;;
1082;SDS011;530;51.448;7.238;2023-05-10T03:37:21;9.10;;;7.60;;
1082;SDS011;530;51.448;7.238;2023-05-10T03:39:46;10.73;;;7.67;;
1082;SDS011;530;51.448;7.238;2023-05-10T03:42:12;10.17;;;8.20;;
1082;SDS011;530;51.448;7.238;2023-05-10T03:44:41;10.10;;;8.17;;
1082;SDS011;530;51.448;7.238;2023-05-10T03:47:06;10.10;;;7.90;;
1082;SDS011;530;51.448;7.238;2023-05-10T03:49:32;10.53;;;8.77;;
1082;SDS011;530;51.448;7.238;2023-05-10T03:51:58;10.57;;;8.53;;
1082;SDS011;530;51.448;7.238;2023-05-10T03:54:23;14.20;;;8.70;;
1082;SDS011;530;51.448;7.238;2023-05-10T03:56:49;12.37;;;9.70;;
1082;SDS011;530;51.448;7.238;2023-05-10T03:59:15;14.33;;;10.50;;
1082;SDS011;530;51.448;7.238;2023-05-10T04:01:40;14.07;;;10.87;;
1082;SDS011;530;51.448;7.238;2023-05-10T04:04:06;15.00;;;11.33;;
1082;SDS011;530;51.448;7.238;2023-05-10T04:06:32;20.07;;;12.10;;
1082;SDS011;530;51.448;7.238;2023-05-10T04:08:58;15.67;;;12.47;;
1082;SDS011;530;51.448;7.238;2023-05-10T04:11:29;20.20;;;12.87;;
1082;SDS011;530;51.448;7.238;2023-05-10T04:13:54;17.87;;;12.97;;
1082;SDS011;530;51.448;7.238;2023-05-10T04:16:20;17.70;;;13.90;;
1082;SDS011;530;51.448;7.238;2023-05-10T04:18:46;17.27;;;13.10;;
1082;SDS011;530;51.448;7.238;2023-05-10T04:21:14;14.50;;;11.47;;
1082;SDS011;530;51.448;7.238;2023-05-10T04:23:40;20.43;;;15.03;;
1082;SDS011;530;51.448;7.238;2023-05-10T04:26:06;14.73;;;12.17;;
1082;SDS011;530;51.448;7.238;2023-05-10T04:28:32;19.53;;;14.47;;
1082;SDS011;530;51.448;7.238;2023-05-10T04:31:07;16.80;;;12.70;;
1082;SDS011;530;51.448;7.238;2023-05-10T04:33:35;15.97;;;12.17;;
1082;SDS011;530;51.448;7.238;2023-05-10T04:36:02;17.20;;;13.33;;
1082;SDS011;530;51.448;7.238;2023-05-10T04:38:28;18.83;;;13.57;;
1082;SDS011;530;51.448;7.238;2023-05-10T04:40:55;17.00;;;13.90;;
1082;SDS011;530;51.448;7.238;2023-05-10T04:43:30;17.97;;;13.47;;
1082;SDS011;530;51.448;7.238;2023-05-10T04:45:58;17.60;;;12.40;;
1082;SDS011;530;51.448;7.238;2023-05-10T04:48:24;18.40;;;13.20;;
1082;SDS011;530;51.448;7.238;2023-05-10T04:50:50;18.20;;;13.23;;
1082;SDS011;530;51.448;7.238;2023-05-10T04:53:16;18.03;;;13.57;;
1082;SDS011;530;51.448;7.238;2023-05-10T04:55:42;20.83;;;14.80;;
1082;SDS011;530;51.448;7.238;2023-05-10T04:58:07;20.03;;;14.60;;
1082;SDS011;530;51.448;7.238;2023-05-10T05:00:33;20.80;;;15.07;;
1082;SDS011;530;51.448;7.238;2023-05-10T05:02:59;21.20;;;15.37;;
1082;SDS011;530;51.448;7.238;2023-05-10T05:05:24;20.07;;;15.50;;
1082;SDS011;530;51.448;7.238;2023-05-10T05:07:50;21.87;;;16.30;;
1082;SDS011;530;51.448;7.238;2023-05-10T05:10:16;23.80;;;15.83;;
1082;SDS011;530;51.448;7.238;2023-05-10T05:12:41;22.27;;;17.27;;
1082;SDS011;530;51.448;7.238;2023-05-10T05:15:07;20.40;;;15.53;;
1082;SDS011;530;51.448;7.238;2023-05-10T05:17:34;22.70;;;17.50;;
1082;SDS011;530;51.448;7.238;2023-05-10T05:20:00;27.17;;;18.43;;
1082;SDS011;530;51.448;7.238;2023-05-10T05:22:26;24.20;;;18.00;;
1082;SDS011;530;51.448;7.238;2023-05-10T05:24:53;24.33;;;17.43;;
1082;SDS011;530;51.448;7.238;2023-05-10T05:27:20;23.40;;;17.50;;
1082;SDS011;530;51.448;7.238;2023-05-10T05:29:52;26.33;;;18.53;;
1082;SDS011;530;51.448;7.238;2023-05-10T05:32:18;24.47;;;18.83;;
1082;SDS011;530;51.448;7.238;2023-05-10T05:34:44;26.80;;;20.77;;
1082;SDS011;530;51.448;7.238;2023-05-10T05:37:29;31.00;;;19.53;;
1082;SDS011;530;51.448;7.238;2023-05-10T05:39:54;27.67;;;20.00;;
1082;SDS011;530;51.448;7.238;2023-05-10T05:42:20;26.23;;;18.30;;
1082;SDS011;530;51.448;7.238;2023-05-10T05:44:46;26.20;;;18.93;;
1082;SDS011;530;51.448;7.238;2023-05-10T05:47:11;27.17;;;20.53;;
1082;SDS011;530;51.448;7.238;2023-05-10T05:49:37;25.87;;;20.10;;
1082;SDS011;530;51.448;7.238;2023-05-10T05:52:03;27.00;;;18.87;;
1082;SDS011;530;51.448;7.238;2023-05-10T05:54:29;27.83;;;21.87;;
1082;SDS011;530;51.448;7.238;2023-05-10T05:56:59;28.20;;;20.57;;
1082;SDS011;530;51.448;7.238;2023-05-10T05:59:25;29.90;;;21.20;;
1082;SDS011;530;51.448;7.238;2023-05-10T06:01:52;30.97;;;22.00;;
1082;SDS011;530;51.448;7.238;2023-05-10T06:04:18;31.70;;;22.00;;
1082;SDS011;530;51.448;7.238;2023-05-10T06:06:44;31.87;;;22.20;;
1082;SDS011;530;51.448;7.238;2023-05-10T06:09:11;30.77;;;21.83;;
1082;SDS011;530;51.448;7.238;2023-05-10T06:11:37;30.47;;;22.87;;
1082;SDS011;530;51.448;7.238;2023-05-10T06:14:03;34.50;;;23.23;;
1082;SDS011;530;51.448;7.238;2023-05-10T06:16:29;30.67;;;22.40;;
1082;SDS011;530;51.448;7.238;2023-05-10T06:18:55;33.77;;;22.10;;
1082;SDS011;530;51.448;7.238;2023-05-10T06:21:21;33.17;;;21.97;;
1082;SDS011;530;51.448;7.238;2023-05-10T06:23:47;26.47;;;19.60;;
1082;SDS011;530;51.448;7.238;2023-05-10T06:26:13;31.10;;;22.97;;
1082;SDS011;530;51.448;7.238;2023-05-10T06:28:39;28.67;;;20.87;;
1082;SDS011;530;51.448;7.238;2023-05-10T06:31:05;32.43;;;22.03;;
1082;SDS011;530;51.448;7.238;2023-05-10T06:33:31;30.00;;;22.20;;
1082;SDS011;530;51.448;7.238;2023-05-10T06:35:57;30.87;;;21.33;;
1082;SDS011;530;51.448;7.238;2023-05-10T06:38:23;31.70;;;21.53;;
1082;SDS011;530;51.448;7.238;2023-05-10T06:40:49;32.90;;;22.73;;
1082;SDS011;530;51.448;7.238;2023-05-10T06:43:15;31.80;;;23.40;;
1082;SDS011;530;51.448;7.238;2023-05-10T06:45:41;35.13;;;23.90;;
1082;SDS011;530;51.448;7.238;2023-05-10T06:48:07;32.23;;;23.50;;
1082;SDS011;530;51.448;7.238;2023-05-10T06:50:33;32.93;;;25.17;;
1082;SDS011;530;51.448;7.238;2023-05-10T06:52:59;31.03;;;23.10;;
1082;SDS011;530;51.448;7.238;2023-05-10T06:55:25;31.37;;;22.90;;
1082;SDS011;530;51.448;7.238;2023-05-10T06:57:51;30.37;;;22.00;;
1082;SDS011;530;51.448;7.238;2023-05-10T07:00:18;29.33;;;22.30;;
1082;SDS011;530;51.448;7.238;2023-05-10T07:02:44;30.90;;;22.60;;
1082;SDS011;530;51.448;7.238;2023-05-10T07:05:10;33.00;;;23.10;;
1082;SDS011;530;51.448;7.238;2023-05-10T07:07:36;30.03;;;22.37;;
1082;SDS011;530;51.448;7.238;2023-05-10T07:10:02;31.60;;;22.70;;
1082;SDS011;530;51.448;7.238;2023-05-10T07:12:28;28.53;;;22.50;;
1082;SDS011;530;51.448;7.238;2023-05-10T07:14:54;30.23;;;22.20;;
1082;SDS011;530;51.448;7.238;2023-05-10T07:17:19;29.03;;;21.90;;
1082;SDS011;530;51.448;7.238;2023-05-10T07:19:45;25.93;;;19.87;;
1082;SDS011;530;51.448;7.238;2023-05-10T07:22:11;30.20;;;20.40;;
1082;SDS011;530;51.448;7.238;2023-05-10T07:24:37;31.43;;;20.07;;
1082;SDS011;530;51.448;7.238;2023-05-10T07:27:02;26.27;;;19.57;;
1082;SDS011;530;51.448;7.238;2023-05-10T07:29:29;28.17;;;20.00;;
1082;SDS011;530;51.448;7.238;2023-05-10T07:31:55;30.23;;;21.50;;
1082;SDS011;530;51.448;7.238;2023-05-10T07:34:20;29.63;;;21.93;;
1082;SDS011;530;51.448;7.238;2023-05-10T07:36:46;26.33;;;19.70;;
1082;SDS011;530;51.448;7.238;2023-05-10T07:39:12;29.60;;;21.10;;
1082;SDS011;530;51.448;7.238;2023-05-10T07:41:38;29.03;;;21.40;;
1082;SDS011;530;51.448;7.238;2023-05-10T07:44:04;38.43;;;22.83;;
1082;SDS011;530;51.448;7.238;2023-05-10T07:46:31;32.53;;;22.63;;
1082;SDS011;530;51.448;7.238;2023-05-10T07:48:57;33.87;;;22.97;;
1082;SDS011;530;51.448;7.238;2023-05-10T07:51:22;33.87;;;23.40;;
1082;SDS011;530;51.448;7.238;2023-05-10T07:53:48;32.63;;;22.90;;
1082;SDS011;530;51.448;7.238;2023-05-10T07:58:46;34.10;;;23.27;;
1082;SDS011;530;51.448;7.238;2023-05-10T08:01:12;31.57;;;23.47;;
1082;SDS011;530;51.448;7.238;2023-05-10T08:03:37;29.00;;;22.03;;
1082;SDS011;530;51.448;7.238;2023-05-10T08:06:03;36.00;;;24.10;;
1082;SDS011;530;51.448;7.238;2023-05-10T08:08:29;38.30;;;25.13;;
1082;SDS011;530;51.448;7.238;2023-05-10T08:10:55;33.50;;;20.93;;
1082;SDS011;530;51.448;7.238;2023-05-10T08:13:20;30.77;;;21.93;;
1082;SDS011;530;51.448;7.238;2023-05-10T08:15:46;30.97;;;20.93;;
1082;SDS011;530;51.448;7.238;2023-05-10T08:18:12;30.97;;;21.60;;
1082;SDS011;530;51.448;7.238;2023-05-10T08:20:38;31.07;;;21.83;;
1082;SDS011;530;51.448;7.238;2023-05-10T08:23:04;29.57;;;20.00;;
1082;SDS011;530;51.448;7.238;2023-05-10T08:25:29;34.00;;;21.53;;
1082;SDS011;530;51.448;7.238;2023-05-10T08:27:56;30.53;;;21.00;;
1082;SDS011;530;51.448;7.238;2023-05-10T08:30:22;30.70;;;21.10;;
1082;SDS011;530;51.448;7.238;2023-05-10T08:32:47;32.63;;;20.40;;
1082;SDS011;530;51.448;7.238;2023-05-10T08:35:13;33.20;;;22.20;;
1082;SDS011;530;51.448;7.238;2023-05-10T08:37:39;28.57;;;19.30;;
1082;SDS011;530;51.448;7.238;2023-05-10T08:40:05;30.83;;;21.27;;
1082;SDS011;530;51.448;7.238;2023-05-10T08:42:31;28.77;;;20.43;;
1082;SDS011;530;51.448;7.238;2023-05-10T08:45:01;28.43;;;20.60;;
1082;SDS011;530;51.448;7.238;2023-05-10T08:47:28;26.87;;;18.67;;
1082;SDS011;530;51.448;7.238;2023-05-10T08:49:54;29.40;;;18.40;;
1082;SDS011;530;51.448;7.238;2023-05-10T08:52:21;27.70;;;19.50;;
1082;SDS011;530;51.448;7.238;2023-05-10T08:54:50;27.90;;;17.50;;
1082;SDS011;530;51.448;7.238;2023-05-10T08:57:16;22.37;;;15.10;;
1082;SDS011;530;51.448;7.238;2023-05-10T08:59:43;20.60;;;14.20;;
1082;SDS011;530;51.448;7.238;2023-05-10T09:02:10;20.23;;;13.47;;
1082;SDS011;530;51.448;7.238;2023-05-10T09:04:37;16.93;;;12.17;;
1082;SDS011;530;51.448;7.238;2023-05-10T09:07:03;15.53;;;9.83;;
1082;SDS011;530;51.448;7.238;2023-05-10T09:09:29;15.40;;;11.30;;
1082;SDS011;530;51.448;7.238;2023-05-10T09:11:56;16.00;;;10.73;;
1082;SDS011;530;51.448;7.238;2023-05-10T09:14:22;13.60;;;9.43;;
1082;SDS011;530;51.448;7.238;2023-05-10T09:16:49;13.80;;;10.00;;
1082;SDS011;530;51.448;7.238;2023-05-10T09:19:15;13.53;;;10.50;;
1082;SDS011;530;51.448;7.238;2023-05-10T09:21:41;13.97;;;10.63;;
1082;SDS011;530;51.448;7.238;2023-05-10T09:24:08;15.10;;;11.37;;
1082;SDS011;530;51.448;7.238;2023-05-10T09:26:34;17.00;;;11.83;;
1082;SDS011;530;51.448;7.238;2023-05-10T09:29:01;16.53;;;10.53;;
1082;SDS011;530;51.448;7.238;2023-05-10T09:34:19;13.67;;;10.60;;
1082;SDS011;530;51.448;7.238;2023-05-10T09:36:53;16.83;;;11.07;;
1082;SDS011;530;51.448;7.238;2023-05-10T09:39:29;16.07;;;10.50;;
1082;SDS011;530;51.448;7.238;2023-05-10T09:42:05;17.23;;;10.90;;
1082;SDS011;530;51.448;7.238;2023-05-10T09:44:33;14.30;;;11.37;;
1082;SDS011;530;51.448;7.238;2023-05-10T09:46:59;18.37;;;11.43;;
1082;SDS011;530;51.448;7.238;2023-05-10T09:49:26;15.60;;;10.77;;
1082;SDS011;530;51.448;7.238;2023-05-10T09:52:05;14.63;;;11.03;;
1082;SDS011;530;51.448;7.238;2023-05-10T09:54:32;15.00;;;10.80;;
1082;SDS011;530;51.448;7.238;2023-05-10T09:56:59;16.73;;;11.47;;
1082;SDS011;530;51.448;7.238;2023-05-10T09:59:26;16.20;;;11.37;;
1082;SDS011;530;51.448;7.238;2023-05-10T10:01:56;17.03;;;11.83;;
1082;SDS011;530;51.448;7.238;2023-05-10T10:04:22;21.63;;;12.20;;
1082;SDS011;530;51.448;7.238;2023-05-10T10:06:58;16.90;;;11.73;;
1082;SDS011;530;51.448;7.238;2023-05-10T10:09:25;21.70;;;13.10;;
1082;SDS011;530;51.448;7.238;2023-05-10T10:11:52;17.43;;;12.00;;
1082;SDS011;530;51.448;7.238;2023-05-10T10:14:18;16.93;;;11.63;;
1082;SDS011;530;51.448;7.238;2023-05-10T10:16:45;16.87;;;12.30;;
1082;SDS011;530;51.448;7.238;2023-05-10T10:19:11;19.13;;;13.20;;
1082;SDS011;530;51.448;7.238;2023-05-10T10:21:37;23.30;;;15.30;;
1082;SDS011;530;51.448;7.238;2023-05-10T10:24:03;25.87;;;17.30;;
1082;SDS011;530;51.448;7.238;2023-05-10T10:26:30;27.07;;;17.60;;
1082;SDS011;530;51.448;7.238;2023-05-10T10:34:25;24.10;;;17.17;;
1082;SDS011;530;51.448;7.238;2023-05-10T10:36:56;24.40;;;16.83;;
1082;SDS011;530;51.448;7.238;2023-05-10T10:39:23;23.00;;;16.47;;
1082;SDS011;530;51.448;7.238;2023-05-10T10:41:52;22.63;;;14.13;;
1082;SDS011;530;51.448;7.238;2023-05-10T10:49:31;17.90;;;12.80;;
1082;SDS011;530;51.448;7.238;2023-05-10T10:52:14;17.30;;;13.37;;
1082;SDS011;530;51.448;7.238;2023-05-10T10:54:53;17.30;;;12.60;;
1082;SDS011;530;51.448;7.238;2023-05-10T10:57:49;17.30;;;12.97;;
1082;SDS011;530;51.448;7.238;2023-05-10T11:00:32;19.50;;;12.30;;
1082;SDS011;530;51.448;7.238;2023-05-10T11:05:47;17.40;;;12.17;;
1082;SDS011;530;51.448;7.238;2023-05-10T11:10:51;20.23;;;14.10;;
1082;SDS011;530;51.448;7.238;2023-05-10T11:13:30;19.63;;;14.80;;
1082;SDS011;530;51.448;7.238;2023-05-10T11:15:57;19.03;;;16.07;;
1082;SDS011;530;51.448;7.238;2023-05-10T11:18:27;19.53;;;15.50;;
1082;SDS011;530;51.448;7.238;2023-05-10T11:20:58;20.97;;;17.37;;
1082;SDS011;530;51.448;7.238;2023-05-10T11:23:31;19.33;;;15.57;;
1082;SDS011;530;51.448;7.238;2023-05-10T11:26:12;19.60;;;15.57;;
1082;SDS011;530;51.448;7.238;2023-05-10T11:28:41;19.37;;;15.30;;
1082;SDS011;530;51.448;7.238;2023-05-10T11:31:17;19.10;;;15.43;;
1082;SDS011;530;51.448;7.238;2023-05-10T11:33:47;18.70;;;14.57;;
1082;SDS011;530;51.448;7.238;2023-05-10T11:36:17;17.77;;;13.10;;
1082;SDS011;530;51.448;7.238;2023-05-10T11:38:44;15.77;;;11.80;;
1082;SDS011;530;51.448;7.238;2023-05-10T11:41:10;14.40;;;12.10;;
1082;SDS011;530;51.448;7.238;2023-05-10T11:43:40;17.73;;;12.90;;
1082;SDS011;530;51.448;7.238;2023-05-10T11:46:07;17.77;;;12.90;;
1082;SDS011;530;51.448;7.238;2023-05-10T11:48:35;13.90;;;11.43;;
1082;SDS011;530;51.448;7.238;2023-05-10T11:51:01;16.70;;;12.37;;
1082;SDS011;530;51.448;7.238;2023-05-10T11:53:31;16.33;;;10.80;;
1082;SDS011;530;51.448;7.238;2023-05-10T11:56:04;16.10;;;10.30;;
1082;SDS011;530;51.448;7.238;2023-05-10T11:58:31;15.30;;;11.63;;
1082;SDS011;530;51.448;7.238;2023-05-10T12:00:58;15.90;;;11.57;;
1082;SDS011;530;51.448;7.238;2023-05-10T12:03:25;13.07;;;10.03;;
1082;SDS011;530;51.448;7.238;2023-05-10T12:05:51;17.20;;;12.10;;
1082;SDS011;530;51.448;7.238;2023-05-10T12:08:20;14.60;;;10.60;;
1082;SDS011;530;51.448;7.238;2023-05-10T12:10:47;14.97;;;10.33;;
1082;SDS011;530;51.448;7.238;2023-05-10T12:13:13;14.33;;;11.67;;
1082;SDS011;530;51.448;7.238;2023-05-10T12:15:40;15.23;;;12.37;;
1082;SDS011;530;51.448;7.238;2023-05-10T12:18:14;15.13;;;12.07;;
1082;SDS011;530;51.448;7.238;2023-05-10T12:20:40;13.80;;;11.93;;
1082;SDS011;530;51.448;7.238;2023-05-10T12:23:08;16.50;;;12.97;;
1082;SDS011;530;51.448;7.238;2023-05-10T12:25:35;15.20;;;11.63;;
1082;SDS011;530;51.448;7.238;2023-05-10T12:28:03;15.03;;;11.43;;
1082;SDS011;530;51.448;7.238;2023-05-10T12:30:31;13.93;;;10.93;;
1082;SDS011;530;51.448;7.238;2023-05-10T12:33:02;13.60;;;11.23;;
1082;SDS011;530;51.448;7.238;2023-05-10T12:35:33;15.13;;;13.53;;
1082;SDS011;530;51.448;7.238;2023-05-10T12:40:59;14.23;;;11.33;;
1082;SDS011;530;51.448;7.238;2023-05-10T12:43:26;13.70;;;11.73;;
1082;SDS011;530;51.448;7.238;2023-05-10T12:45:52;12.90;;;10.73;;
1082;SDS011;530;51.448;7.238;2023-05-10T12:48:18;13.07;;;10.53;;
1082;SDS011;530;51.448;7.238;2023-05-10T12:50:43;12.13;;;10.10;;
1082;SDS011;530;51.448;7.238;2023-05-10T12:53:10;15.30;;;11.60;;
1082;SDS011;530;51.448;7.238;2023-05-10T12:55:35;11.07;;;9.87;;
1082;SDS011;530;51.448;7.238;2023-05-10T12:58:01;11.40;;;10.27;;
1082;SDS011;530;51.448;7.238;2023-05-10T13:00:27;14.47;;;13.00;;
1082;SDS011;530;51.448;7.238;2023-05-10T13:02:53;14.93;;;13.43;;
1082;SDS011;530;51.448;7.238;2023-05-10T13:05:19;16.97;;;14.50;;
1082;SDS011;530;51.448;7.238;2023-05-10T13:07:45;16.43;;;14.67;;
1082;SDS011;530;51.448;7.238;2023-05-10T13:10:10;16.13;;;14.53;;
1082;SDS011;530;51.448;7.238;2023-05-10T13:12:36;17.40;;;15.70;;
1082;SDS011;530;51.448;7.238;2023-05-10T13:15:02;18.47;;;16.67;;
1082;SDS011;530;51.448;7.238;2023-05-10T13:17:28;18.30;;;15.20;;
1082;SDS011;530;51.448;7.238;2023-05-10T13:19:54;15.00;;;13.60;;
1082;SDS011;530;51.448;7.238;2023-05-10T13:22:20;14.67;;;13.13;;
1082;SDS011;530;51.448;7.238;2023-05-10T13:24:45;13.60;;;12.20;;
1082;SDS011;530;51.448;7.238;2023-05-10T13:27:11;12.80;;;10.93;;
1082;SDS011;530;51.448;7.238;2023-05-10T13:29:37;11.00;;;9.80;;
1082;SDS011;530;51.448;7.238;2023-05-10T13:32:03;9.33;;;8.43;;
1082;SDS011;530;51.448;7.238;2023-05-10T13:34:29;10.17;;;7.10;;
1082;SDS011;530;51.448;7.238;2023-05-10T13:36:54;9.10;;;7.90;;
1082;SDS011;530;51.448;7.238;2023-05-10T13:39:21;8.80;;;7.90;;
1082;SDS011;530;51.448;7.238;2023-05-10T13:41:47;8.87;;;7.97;;
1082;SDS011;530;51.448;7.238;2023-05-10T13:44:13;8.57;;;7.37;;
1082;SDS011;530;51.448;7.238;2023-05-10T13:46:40;9.43;;;7.97;;
1082;SDS011;530;51.448;7.238;2023-05-10T13:49:08;8.23;;;7.37;;
1082;SDS011;530;51.448;7.238;2023-05-10T13:51:34;7.27;;;6.57;;
1082;SDS011;530;51.448;7.238;2023-05-10T13:54:01;8.27;;;7.43;;
1082;SDS011;530;51.448;7.238;2023-05-10T13:56:27;7.33;;;6.30;;
1082;SDS011;530;51.448;7.238;2023-05-10T13:58:53;7.30;;;6.60;;
1082;SDS011;530;51.448;7.238;2023-05-10T14:01:19;7.30;;;6.60;;
1082;SDS011;530;51.448;7.238;2023-05-10T14:03:44;6.63;;;5.87;;
1082;SDS011;530;51.448;7.238;2023-05-10T14:06:10;6.40;;;4.67;;
1082;SDS011;530;51.448;7.238;2023-05-10T14:08:36;4.60;;;4.20;;
1082;SDS011;530;51.448;7.238;2023-05-10T14:11:02;4.90;;;4.40;;
1082;SDS011;530;51.448;7.238;2023-05-10T14:13:27;6.30;;;4.70;;
1082;SDS011;530;51.448;7.238;2023-05-10T14:15:53;5.33;;;4.40;;
1082;SDS011;530;51.448;7.238;2023-05-10T14:18:19;4.90;;;4.27;;
1082;SDS011;530;51.448;7.238;2023-05-10T14:20:45;5.37;;;4.87;;
1082;SDS011;530;51.448;7.238;2023-05-10T14:23:11;5.50;;;3.90;;
1082;SDS011;530;51.448;7.238;2023-05-10T14:25:37;8.47;;;5.60;;
1082;SDS011;530;51.448;7.238;2023-05-10T14:28:05;9.03;;;4.37;;
1082;SDS011;530;51.448;7.238;2023-05-10T14:30:31;5.30;;;4.80;;
1082;SDS011;530;51.448;7.238;2023-05-10T14:33:01;5.40;;;4.90;;
1082;SDS011;530;51.448;7.238;2023-05-10T14:35:28;6.40;;;4.93;;
1082;SDS011;530;51.448;7.238;2023-05-10T14:37:56;7.00;;;6.40;;
1082;SDS011;530;51.448;7.238;2023-05-10T14:40:21;12.83;;;8.17;;
1082;SDS011;530;51.448;7.238;2023-05-10T14:42:47;7.90;;;6.20;;
1082;SDS011;530;51.448;7.238;2023-05-10T14:45:15;7.50;;;5.63;;
1082;SDS011;530;51.448;7.238;2023-05-10T14:47:40;7.10;;;6.40;;
1082;SDS011;530;51.448;7.238;2023-05-10T14:50:06;8.77;;;6.33;;
1082;SDS011;530;51.448;7.238;2023-05-10T14:52:32;6.77;;;6.07;;
1082;SDS011;530;51.448;7.238;2023-05-10T14:54:58;6.30;;;5.60;;
1082;SDS011;530;51.448;7.238;2023-05-10T14:57:25;5.63;;;5.10;;
1082;SDS011;530;51.448;7.238;2023-05-10T14:59:51;5.90;;;5.33;;
1082;SDS011;530;51.448;7.238;2023-05-10T15:02:16;5.50;;;5.00;;
1082;SDS011;530;51.448;7.238;2023-05-10T15:04:42;4.97;;;4.33;;
1082;SDS011;530;51.448;7.238;2023-05-10T15:07:08;6.10;;;4.77;;
1082;SDS011;530;51.448;7.238;2023-05-10T15:09:33;9.33;;;5.70;;
1082;SDS011;530;51.448;7.238;2023-05-10T15:11:59;7.27;;;6.10;;
1082;SDS011;530;51.448;7.238;2023-05-10T15:14:25;9.30;;;7.70;;
1082;SDS011;530;51.448;7.238;2023-05-10T15:16:51;7.83;;;7.00;;
1082;SDS011;530;51.448;7.238;2023-05-10T15:19:16;7.80;;;7.00;;
1082;SDS011;530;51.448;7.238;2023-05-10T15:21:42;9.70;;;7.63;;
1082;SDS011;530;51.448;7.238;2023-05-10T15:24:09;7.30;;;6.60;;
1082;SDS011;530;51.448;7.238;2023-05-10T15:26:35;9.13;;;8.27;;
1082;SDS011;530;51.448;7.238;2023-05-10T15:29:00;8.60;;;7.73;;
1082;SDS011;530;51.448;7.238;2023-05-10T15:31:26;9.40;;;8.40;;
1082;SDS011;530;51.448;7.238;2023-05-10T15:33:56;10.10;;;9.10;;
1082;SDS011;530;51.448;7.238;2023-05-10T15:36:23;9.23;;;8.30;;
1082;SDS011;530;51.448;7.238;2023-05-10T15:38:49;9.30;;;8.40;;
1082;SDS011;530;51.448;7.238;2023-05-10T15:41:14;8.80;;;7.90;;
1082;SDS011;530;51.448;7.238;2023-05-10T15:43:40;7.77;;;7.13;;
1082;SDS011;530;51.448;7.238;2023-05-10T15:46:06;8.90;;;7.03;;
1082;SDS011;530;51.448;7.238;2023-05-10T15:48:32;8.60;;;7.70;;
1082;SDS011;530;51.448;7.238;2023-05-10T15:50:58;8.80;;;7.90;;
1082;SDS011;530;51.448;7.238;2023-05-10T15:53:23;10.50;;;9.47;;
1082;SDS011;530;51.448;7.238;2023-05-10T15:55:49;9.90;;;9.00;;
1082;SDS011;530;51.448;7.238;2023-05-10T15:58:15;8.20;;;7.40;;
1082;SDS011;530;51.448;7.238;2023-05-10T16:00:41;8.70;;;7.90;;